Alan P Hall — WDG4692 — position and weather

sailwx.info

Track history (hours):
 
Tides and Currents Weather Stations Pressure Air Temp Water Temp Dewpoint Dewpoint Depression Visibility Wind Speed Wind Dir Waves Ship Positions

Alan P Hall

Owner: Amherst Madison,Inc 2 Port Amherst Drive Charleston,WV 25306, Charleston, WV. More information available from US FCC via Universal Licensing System and Coast Guard Vessel Documentation Center.

Last reported at 2015-Mar-26 17:28 UTC. Time now 2015-Apr-01 10:40 UTC.
Position N 38°59' W 081°56'.

Length 51 m; draft 2.5 m.

Type: Towing. MMSI: 367539160.

Date/timePositionNaut miles runAvg speedWind from/ knotsBaromVisibWave heightAir tempDewpointWater temp
2015-Mar-26 17:28N 38°59' W 081°56'2 2.2
2015-Mar-26 16:32N 38°60' W 081°58'4 3.5
2015-Mar-26 15:29N 39°00' W 082°03'0 0.3
2015-Mar-26 14:30N 39°00' W 082°03'5 4.8
2015-Mar-26 13:30N 38°56' W 082°07'1 1.4
2015-Mar-26 12:31N 38°55' W 082°07'3 3.1
2015-Mar-26 11:33N 38°52' W 082°08'4 3.7
2015-Mar-26 10:33N 38°49' W 082°11'3 3.0
2015-Mar-26 09:33N 38°47' W 082°13'0 0.0
2015-Mar-24 10:32N 38°46' W 082°13'5 4.4
2015-Mar-24 09:30N 38°50' W 082°09'1 1.0
2015-Mar-24 08:33N 38°50' W 082°08'0 0.0
2015-Mar-24 07:27N 38°50' W 082°08'0 0.0
2015-Mar-24 06:25N 38°50' W 082°08'0 0.1
2015-Mar-24 05:29N 38°50' W 082°08'0 0.0
2015-Mar-24 04:06N 38°50' W 082°08'0 0.1
2015-Mar-24 03:30N 38°50' W 082°08'0 0.1
2015-Mar-24 02:14N 38°50' W 082°08'2 2.4
2015-Mar-24 01:26N 38°49' W 082°06'2 2.1
2015-Mar-24 00:31N 38°50' W 082°08'1 0.7
2015-Mar-23 23:32N 38°51' W 082°09'5 4.2
2015-Mar-23 22:25N 38°55' W 082°07'4 4.9
2015-Mar-23 21:33N 38°59' W 082°04'6 3.8
2015-Mar-23 20:04N 38°60' W 081°57'  
2015-Mar-17 12:21N 39°16' W 081°38'  
Track history (hours):
 
Tides and Currents Weather Stations Pressure Air Temp Water Temp Dewpoint Dewpoint Depression Visibility Wind Speed Wind Dir Waves Ship Positions

Alan P Hall

Owner: Amherst Madison,Inc 2 Port Amherst Drive Charleston,WV 25306, Charleston, WV. More information available from US FCC via Universal Licensing System and Coast Guard Vessel Documentation Center.

Last reported at 2015-Mar-26 17:28 UTC. Time now 2015-Apr-01 10:40 UTC.
Position N 38°59' W 081°56'.

Length 51 m; draft 2.5 m.

Type: Towing. MMSI: 367539160.

Date/timePositionNaut miles runAvg speedWind from/ knotsBaromVisibWave heightAir tempDewpointWater temp
2015-Mar-26 17:28N 38°59' W 081°56'2 2.2
2015-Mar-26 16:32N 38°60' W 081°58'4 3.5
2015-Mar-26 15:29N 39°00' W 082°03'0 0.3
2015-Mar-26 14:30N 39°00' W 082°03'5 4.8
2015-Mar-26 13:30N 38°56' W 082°07'1 1.4
2015-Mar-26 12:31N 38°55' W 082°07'3 3.1
2015-Mar-26 11:33N 38°52' W 082°08'4 3.7
2015-Mar-26 10:33N 38°49' W 082°11'3 3.0
2015-Mar-26 09:33N 38°47' W 082°13'0 0.0
2015-Mar-24 10:32N 38°46' W 082°13'5 4.4
2015-Mar-24 09:30N 38°50' W 082°09'1 1.0
2015-Mar-24 08:33N 38°50' W 082°08'0 0.0
2015-Mar-24 07:27N 38°50' W 082°08'0 0.0
2015-Mar-24 06:25N 38°50' W 082°08'0 0.1
2015-Mar-24 05:29N 38°50' W 082°08'0 0.0
2015-Mar-24 04:06N 38°50' W 082°08'0 0.1
2015-Mar-24 03:30N 38°50' W 082°08'0 0.1
2015-Mar-24 02:14N 38°50' W 082°08'2 2.4
2015-Mar-24 01:26N 38°49' W 082°06'2 2.1
2015-Mar-24 00:31N 38°50' W 082°08'1 0.7
2015-Mar-23 23:32N 38°51' W 082°09'5 4.2
2015-Mar-23 22:25N 38°55' W 082°07'4 4.9
2015-Mar-23 21:33N 38°59' W 082°04'6 3.8
2015-Mar-23 20:04N 38°60' W 081°57'  
2015-Mar-17 12:21N 39°16' W 081°38'  

Dump ship's entire track history